SBSP/CGH METAR and TAF weather

Enter ICAO airport designator
Station Type Date Time Source
SBSP METAR 2019/06/16 21:00 UTC NOAA

SBSP 162100Z 15008KT CAVOK 21/13 Q1025


Station Type Date Time Source
SBSP Decoded METAR 2019/06/16 21:00 UTC NOAA

Sao Paulo/Congonhas Aeroporto, Brazil (SBSP) 23-37S 046-39W 802M
Jun 16, 2019 - 05:00 PM EDT / 2019.06.16 2100 UTC
Wind: from the SSE (150 degrees) at 9 MPH (8 KT):0
Visibility: greater than 7 mile(s):0
Temperature: 69 F (21 C)
Dew Point: 55 F (13 C)
Relative Humidity: 60%
Pressure (altimeter): 30.27 in. Hg (1025 hPa)
ob: SBSP 162100Z 15008KT CAVOK 21/13 Q1025
cycle: 21

Station Type Date Time Source
SBSP TAF 2019/06/16 18:21 UTC NOAA

TAF SBSP 161600Z 1618/1718 24005KT CAVOK TX25/1618Z TN15/1709Z
BECMG 1620/1622 15005KT 8000 BKN020
BECMG 1700/1702 08005KT NSC
BECMG 1705/1707 5000 BR FEW005 SCT010
BECMG 1710/1712 06010KT CAVOK
BECMG 1715/1717 16010KT SCT025
RMK PGG

Example: see airport list